Time;durP1;ratioP1;P1;durP2;ratioP2;P2;SDS_P1;SDS_P2;PMS_P1;PMS_P2;Temp;Humidity;BMP_temperature;BMP_pressure;BME280_temperature;BME280_humidity;BME280_pressure;Samples;Min_cycle;Max_cycle;Signal;HPM_P1;HPM_P2
2023/10/26 00:02:06;;;;;;;55.77;1.90;;;;;;;;;;5053350;28;20454;-70
2023/10/26 00:04:33;;;;;;;55.80;1.77;;;;;;;;;;5055170;28;20502;-71
2023/10/26 00:07:00;;;;;;;55.37;1.70;;;;;;;;;;5058115;28;20455;-71
2023/10/26 00:09:27;;;;;;;56.10;2.10;;;;;;;;;;5053887;28;20475;-70
2023/10/26 00:11:54;;;;;;;55.80;1.80;;;;;;;;;;5053446;28;20843;-70
2023/10/26 00:14:22;;;;;;;55.90;1.80;;;;;;;;;;5053591;28;20444;-71
2023/10/26 00:16:50;;;;;;;55.97;2.10;;;;;;;;;;5053206;28;20456;-70
2023/10/26 00:19:17;;;;;;;55.97;1.80;;;;;;;;;;5053688;28;20475;-71
2023/10/26 00:21:44;;;;;;;55.57;1.80;;;;;;;;;;5057072;28;20453;-71
2023/10/26 00:24:12;;;;;;;55.23;1.90;;;;;;;;;;5058166;28;20484;-70
2023/10/26 00:26:40;;;;;;;55.43;1.80;;;;;;;;;;5058390;28;20457;-71
2023/10/26 00:29:07;;;;;;;55.23;1.90;;;;;;;;;;5057357;28;20516;-71
2023/10/26 00:31:34;;;;;;;55.43;1.70;;;;;;;;;;5057527;28;20458;-71
2023/10/26 00:34:02;;;;;;;54.60;1.80;;;;;;;;;;5055000;28;20450;-70
2023/10/26 00:36:30;;;;;;;55.77;1.90;;;;;;;;;;5059693;28;20452;-71
2023/10/26 00:38:57;;;;;;;55.33;1.73;;;;;;;;;;5063022;28;20766;-71
2023/10/26 00:41:24;;;;;;;55.03;1.87;;;;;;;;;;5061953;28;20449;-71
2023/10/26 00:43:51;;;;;;;55.57;1.87;;;;;;;;;;5061767;28;20481;-71
2023/10/26 00:46:18;;;;;;;55.67;1.73;;;;;;;;;;5062402;28;20540;-70
2023/10/26 00:48:45;;;;;;;55.37;1.80;;;;;;;;;;5061251;28;20446;-70
2023/10/26 00:51:14;;;;;;;55.73;1.77;;;;;;;;;;5061525;28;20442;-71
2023/10/26 00:53:43;;;;;;;55.27;1.80;;;;;;;;;;5056872;28;20468;-71
2023/10/26 00:56:11;;;;;;;55.37;1.83;;;;;;;;;;5053503;28;20454;-71
2023/10/26 00:58:39;;;;;;;55.80;1.90;;;;;;;;;;5061357;28;20532;-71
2023/10/26 01:01:06;;;;;;;55.53;1.87;;;;;;;;;;5057216;28;21026;-71
2023/10/26 01:03:33;;;;;;;55.47;1.90;;;;;;;;;;5054266;28;20491;-71
2023/10/26 01:06:01;;;;;;;55.57;2.00;;;;;;;;;;5052153;28;20448;-71
2023/10/26 01:08:29;;;;;;;55.87;1.90;;;;;;;;;;5052043;28;20450;-71
2023/10/26 01:10:57;;;;;;;55.97;1.90;;;;;;;;;;5051808;28;20470;-71
2023/10/26 01:13:25;;;;;;;54.87;1.80;;;;;;;;;;5051909;28;20541;-71
2023/10/26 01:15:52;;;;;;;55.57;1.83;;;;;;;;;;5052060;28;20508;-71
2023/10/26 01:18:19;;;;;;;56.00;2.30;;;;;;;;;;5051791;28;20993;-70
2023/10/26 01:20:46;;;;;;;56.20;2.40;;;;;;;;;;5051485;28;20515;-71
2023/10/26 01:23:14;;;;;;;55.67;2.07;;;;;;;;;;5050935;28;20855;-71
2023/10/26 01:25:42;;;;;;;55.53;2.00;;;;;;;;;;5051666;28;20448;-70
2023/10/26 01:28:09;;;;;;;56.00;2.10;;;;;;;;;;5051666;28;20451;-71
2023/10/26 01:30:36;;;;;;;55.47;1.90;;;;;;;;;;5051429;28;20475;-70
2023/10/26 01:33:03;;;;;;;55.50;1.93;;;;;;;;;;5051442;28;20440;-71
2023/10/26 01:35:38;;;;;;;55.50;1.80;;;;;;;;;;5051386;28;20457;-71
2023/10/26 01:38:05;;;;;;;55.57;1.90;;;;;;;;;;5051319;28;20513;-70
2023/10/26 01:40:33;;;;;;;56.60;2.17;;;;;;;;;;5051204;28;20470;-71
2023/10/26 01:43:00;;;;;;;55.27;1.87;;;;;;;;;;5051346;28;20454;-71
2023/10/26 01:45:27;;;;;;;55.37;2.00;;;;;;;;;;5051190;28;20446;-71
2023/10/26 01:47:55;;;;;;;55.47;2.40;;;;;;;;;;5051174;28;20833;-70
2023/10/26 01:50:22;;;;;;;55.57;2.17;;;;;;;;;;5050924;28;20470;-71
2023/10/26 01:52:49;;;;;;;55.43;1.97;;;;;;;;;;5051054;28;20450;-71
2023/10/26 01:55:17;;;;;;;55.63;2.00;;;;;;;;;;5051039;28;20475;-71
2023/10/26 01:57:45;;;;;;;55.53;2.20;;;;;;;;;;5051212;28;20457;-71
2023/10/26 02:00:13;;;;;;;55.90;2.10;;;;;;;;;;5050856;28;20815;-71
2023/10/26 02:02:41;;;;;;;55.60;2.00;;;;;;;;;;5050735;28;20447;-70
2023/10/26 02:05:08;;;;;;;55.90;2.00;;;;;;;;;;5049792;28;20484;-70
2023/10/26 02:07:35;;;;;;;56.40;3.10;;;;;;;;;;5050967;28;20450;-69
2023/10/26 02:10:03;;;;;;;55.70;1.83;;;;;;;;;;5050713;28;20473;-69
2023/10/26 02:12:30;;;;;;;55.80;2.13;;;;;;;;;;5051004;28;20454;-70
2023/10/26 02:14:58;;;;;;;55.87;2.30;;;;;;;;;;5050451;28;20450;-70
2023/10/26 02:17:25;;;;;;;55.47;2.20;;;;;;;;;;5050534;28;20456;-69
2023/10/26 02:19:52;;;;;;;55.47;2.00;;;;;;;;;;5050335;28;20472;-70
2023/10/26 02:22:19;;;;;;;55.47;2.20;;;;;;;;;;5050901;28;20447;-70
2023/10/26 02:24:46;;;;;;;55.57;2.10;;;;;;;;;;5050379;28;20494;-69
2023/10/26 02:27:14;;;;;;;55.87;2.00;;;;;;;;;;5050778;28;20819;-70
2023/10/26 02:29:41;;;;;;;55.67;2.00;;;;;;;;;;5050753;28;20559;-70
2023/10/26 02:32:10;;;;;;;55.43;2.00;;;;;;;;;;5050273;28;20451;-69
2023/10/26 02:34:37;;;;;;;55.60;2.00;;;;;;;;;;5050671;28;20810;-69
2023/10/26 02:37:04;;;;;;;55.77;1.80;;;;;;;;;;5050201;28;20448;-69
2023/10/26 02:39:31;;;;;;;55.67;2.00;;;;;;;;;;5050408;28;20470;-69
2023/10/26 02:41:58;;;;;;;55.70;2.20;;;;;;;;;;5050651;28;20441;-69
2023/10/26 02:44:27;;;;;;;55.90;1.93;;;;;;;;;;5050204;28;20578;-69
2023/10/26 02:46:54;;;;;;;55.10;1.83;;;;;;;;;;5050274;28;20448;-70
2023/10/26 02:49:22;;;;;;;55.47;1.90;;;;;;;;;;5050516;28;20811;-70
2023/10/26 02:51:49;;;;;;;55.17;1.90;;;;;;;;;;5050345;28;20449;-70
2023/10/26 02:54:17;;;;;;;55.37;1.90;;;;;;;;;;5050250;28;20450;-70
2023/10/26 02:56:44;;;;;;;55.53;1.80;;;;;;;;;;5050424;28;20451;-70
2023/10/26 02:59:11;;;;;;;55.27;1.80;;;;;;;;;;5049926;28;21074;-70
2023/10/26 03:01:38;;;;;;;55.33;2.00;;;;;;;;;;5050216;28;20464;-70
2023/10/26 03:04:05;;;;;;;55.53;1.90;;;;;;;;;;5049945;28;20490;-70
2023/10/26 03:06:38;;;;;;;55.53;1.97;;;;;;;;;;5050417;28;20488;-70
2023/10/26 03:09:07;;;;;;;55.47;2.10;;;;;;;;;;5049899;28;20474;-70
2023/10/26 03:11:35;;;;;;;55.90;2.07;;;;;;;;;;5050100;28;20453;-70
2023/10/26 03:14:02;;;;;;;55.77;1.80;;;;;;;;;;5050323;28;20453;-70
2023/10/26 03:16:29;;;;;;;56.10;2.07;;;;;;;;;;5052794;28;20502;-70
2023/10/26 03:18:56;;;;;;;55.97;2.00;;;;;;;;;;5053826;28;20459;-70
2023/10/26 03:21:23;;;;;;;55.23;2.00;;;;;;;;;;5054279;28;20448;-70
2023/10/26 03:23:53;;;;;;;55.57;1.97;;;;;;;;;;5053688;28;20497;-70
2023/10/26 03:26:20;;;;;;;55.57;1.97;;;;;;;;;;5053928;28;20455;-70
2023/10/26 03:28:47;;;;;;;55.63;2.10;;;;;;;;;;5053577;28;20976;-70
2023/10/26 03:31:14;;;;;;;55.07;2.00;;;;;;;;;;5053491;28;20449;-70
2023/10/26 03:33:41;;;;;;;55.47;1.90;;;;;;;;;;5053794;28;20448;-70
2023/10/26 03:36:13;;;;;;;56.00;1.80;;;;;;;;;;5054038;28;20450;-70
2023/10/26 03:38:40;;;;;;;55.60;1.70;;;;;;;;;;5053668;28;20451;-70
2023/10/26 03:41:09;;;;;;;55.20;2.10;;;;;;;;;;5053606;28;20837;-70
2023/10/26 03:43:36;;;;;;;55.73;1.90;;;;;;;;;;5053480;28;20448;-70
2023/10/26 03:46:04;;;;;;;55.90;2.50;;;;;;;;;;5053520;28;20448;-70
2023/10/26 03:48:32;;;;;;;55.57;2.00;;;;;;;;;;5053632;28;20546;-70
2023/10/26 03:50:59;;;;;;;55.27;1.90;;;;;;;;;;5053254;28;20474;-70
2023/10/26 03:53:27;;;;;;;55.57;1.90;;;;;;;;;;5053179;28;20455;-70
2023/10/26 03:55:54;;;;;;;55.87;2.10;;;;;;;;;;5053319;28;20452;-70
2023/10/26 03:58:22;;;;;;;56.23;2.10;;;;;;;;;;5053464;28;20900;-70
2023/10/26 04:00:51;;;;;;;55.43;2.00;;;;;;;;;;5053081;28;20487;-70
2023/10/26 04:03:18;;;;;;;56.00;1.90;;;;;;;;;;5047787;28;20450;-71
2023/10/26 04:05:45;;;;;;;55.97;2.07;;;;;;;;;;5071784;28;20578;-70
2023/10/26 04:08:12;;;;;;;55.47;1.90;;;;;;;;;;5070995;28;20444;-70
2023/10/26 04:10:39;;;;;;;55.17;2.30;;;;;;;;;;5071095;28;20560;-70
2023/10/26 04:13:06;;;;;;;56.00;2.10;;;;;;;;;;5071384;28;20447;-70
2023/10/26 04:15:34;;;;;;;55.37;2.03;;;;;;;;;;5071599;28;20512;-70
2023/10/26 04:18:05;;;;;;;55.57;2.00;;;;;;;;;;5071939;28;20516;-70
2023/10/26 04:20:32;;;;;;;55.67;1.90;;;;;;;;;;5072189;28;20468;-70
2023/10/26 04:22:59;;;;;;;55.73;1.83;;;;;;;;;;5071534;28;20556;-70
2023/10/26 04:25:28;;;;;;;55.83;2.00;;;;;;;;;;5070896;28;20483;-70
2023/10/26 04:27:56;;;;;;;55.33;1.90;;;;;;;;;;5071048;28;20438;-70
2023/10/26 04:30:23;;;;;;;55.17;1.90;;;;;;;;;;5063199;28;20480;-70
2023/10/26 04:32:52;;;;;;;55.57;1.80;;;;;;;;;;5053503;28;20544;-70
2023/10/26 04:35:20;;;;;;;55.93;1.90;;;;;;;;;;5044841;28;20475;-70
2023/10/26 04:37:47;;;;;;;55.77;1.97;;;;;;;;;;5053228;28;20502;-70
2023/10/26 04:40:14;;;;;;;55.70;2.13;;;;;;;;;;5052503;28;20480;-70
2023/10/26 04:42:41;;;;;;;55.47;1.97;;;;;;;;;;5052991;28;20823;-70
2023/10/26 04:45:08;;;;;;;55.97;2.07;;;;;;;;;;5052425;28;20482;-70
2023/10/26 04:47:35;;;;;;;55.90;2.10;;;;;;;;;;5052895;28;20452;-70
2023/10/26 04:50:04;;;;;;;55.53;1.90;;;;;;;;;;5052398;28;20477;-70
2023/10/26 04:52:32;;;;;;;55.77;2.03;;;;;;;;;;5052736;28;20452;-70
2023/10/26 04:54:59;;;;;;;55.83;2.07;;;;;;;;;;5053146;28;20449;-70
2023/10/26 04:57:26;;;;;;;55.43;1.87;;;;;;;;;;5052815;28;20458;-70
2023/10/26 04:59:53;;;;;;;55.50;1.90;;;;;;;;;;5052716;28;20468;-70
2023/10/26 05:02:20;;;;;;;55.87;2.50;;;;;;;;;;5052188;28;20789;-70
2023/10/26 05:04:47;;;;;;;56.07;2.20;;;;;;;;;;5052335;28;20482;-70
2023/10/26 05:07:15;;;;;;;56.10;2.00;;;;;;;;;;5052173;28;20473;-69
2023/10/26 05:09:42;;;;;;;56.07;2.20;;;;;;;;;;5052203;28;20976;-70
2023/10/26 05:12:09;;;;;;;55.83;2.30;;;;;;;;;;5052018;28;20837;-70
2023/10/26 05:14:36;;;;;;;55.97;2.03;;;;;;;;;;5052000;28;20447;-70
2023/10/26 05:17:04;;;;;;;55.33;2.10;;;;;;;;;;5052602;28;20444;-70
2023/10/26 05:19:32;;;;;;;56.03;1.97;;;;;;;;;;5052235;28;20493;-70
2023/10/26 05:21:59;;;;;;;55.67;1.90;;;;;;;;;;5051671;28;20458;-70
2023/10/26 05:24:28;;;;;;;55.57;2.27;;;;;;;;;;5051702;28;20504;-70
2023/10/26 05:26:55;;;;;;;55.77;2.20;;;;;;;;;;5051721;28;20456;-70
2023/10/26 05:29:23;;;;;;;55.77;2.20;;;;;;;;;;5051657;28;20607;-69
2023/10/26 05:31:50;;;;;;;55.60;1.87;;;;;;;;;;5051023;28;20467;-70
2023/10/26 05:34:17;;;;;;;55.87;2.00;;;;;;;;;;5051633;28;21047;-70
2023/10/26 05:36:44;;;;;;;56.10;2.63;;;;;;;;;;5051755;28;20918;-70
2023/10/26 05:39:11;;;;;;;56.20;2.10;;;;;;;;;;5051378;28;20472;-70
2023/10/26 05:41:39;;;;;;;55.97;2.30;;;;;;;;;;5051425;28;20456;-70
2023/10/26 05:44:06;;;;;;;55.00;2.17;;;;;;;;;;5051471;28;20451;-70
2023/10/26 05:46:34;;;;;;;56.00;2.23;;;;;;;;;;5051554;28;20452;-70
2023/10/26 05:49:01;;;;;;;55.77;2.17;;;;;;;;;;5051602;28;20444;-70
2023/10/26 05:51:29;;;;;;;56.10;2.27;;;;;;;;;;5051593;28;20446;-70
2023/10/26 05:53:56;;;;;;;55.47;2.23;;;;;;;;;;5051463;28;20448;-70
2023/10/26 05:56:23;;;;;;;55.87;2.30;;;;;;;;;;5051534;28;20449;-70
2023/10/26 05:58:51;;;;;;;55.87;2.20;;;;;;;;;;5051526;28;20458;-70
2023/10/26 06:01:18;;;;;;;56.30;2.30;;;;;;;;;;5051535;28;20450;-70
2023/10/26 06:03:46;;;;;;;55.80;2.40;;;;;;;;;;5051803;28;20446;-70
2023/10/26 06:06:13;;;;;;;56.13;2.10;;;;;;;;;;5051642;28;20558;-70
2023/10/26 06:08:40;;;;;;;56.07;2.10;;;;;;;;;;5051816;28;20452;-69
2023/10/26 06:11:07;;;;;;;59.80;2.20;;;;;;;;;;5046142;28;20440;-70
2023/10/26 06:13:35;;;;;;;56.60;2.50;;;;;;;;;;5051607;28;20212;-70
2023/10/26 06:16:03;;;;;;;55.77;2.20;;;;;;;;;;5051553;28;20451;-71
2023/10/26 06:18:32;;;;;;;56.10;2.03;;;;;;;;;;5051151;28;20997;-71
2023/10/26 06:21:00;;;;;;;55.73;1.90;;;;;;;;;;5050692;28;20650;-71
2023/10/26 06:23:28;;;;;;;56.10;1.90;;;;;;;;;;5050887;28;20448;-71
2023/10/26 06:25:58;;;;;;;56.20;2.40;;;;;;;;;;5051823;28;20481;-71
2023/10/26 06:28:26;;;;;;;55.63;2.23;;;;;;;;;;5043430;28;20505;-70
2023/10/26 06:30:53;;;;;;;55.87;2.40;;;;;;;;;;5051642;28;20464;-71
2023/10/26 06:33:21;;;;;;;55.17;1.93;;;;;;;;;;5051627;28;20448;-70
2023/10/26 06:35:49;;;;;;;55.60;2.17;;;;;;;;;;5051133;28;20448;-71
2023/10/26 06:38:16;;;;;;;55.80;2.20;;;;;;;;;;5051360;28;20444;-71
2023/10/26 06:40:44;;;;;;;55.00;2.33;;;;;;;;;;5050935;28;20455;-71
2023/10/26 06:43:11;;;;;;;56.00;2.30;;;;;;;;;;5051071;28;20793;-70
2023/10/26 06:45:38;;;;;;;55.97;2.47;;;;;;;;;;5050449;28;21062;-70
2023/10/26 06:48:06;;;;;;;55.57;2.83;;;;;;;;;;5050965;28;20455;-70
2023/10/26 06:50:34;;;;;;;55.80;2.37;;;;;;;;;;5051855;28;20465;-71
2023/10/26 06:53:01;;;;;;;56.57;2.20;;;;;;;;;;5055038;28;20463;-70
2023/10/26 06:55:32;;;;;;;56.10;2.60;;;;;;;;;;5054772;28;20456;-70
2023/10/26 06:57:59;;;;;;;58.07;3.07;;;;;;;;;;5055139;28;20445;-70
2023/10/26 07:00:26;;;;;;;56.90;3.40;;;;;;;;;;5054727;28;20490;-71
2023/10/26 07:02:53;;;;;;;56.07;3.00;;;;;;;;;;5054888;28;20479;-71
2023/10/26 07:05:20;;;;;;;55.60;2.43;;;;;;;;;;5055000;28;20489;-71
2023/10/26 07:07:49;;;;;;;55.67;2.50;;;;;;;;;;5054640;28;20883;-71
2023/10/26 07:10:18;;;;;;;56.07;2.40;;;;;;;;;;5054523;28;20473;-71
2023/10/26 07:12:45;;;;;;;56.67;4.13;;;;;;;;;;5054713;28;20522;-71
2023/10/26 07:15:12;;;;;;;55.90;2.73;;;;;;;;;;5054346;28;20442;-71
2023/10/26 07:17:40;;;;;;;55.97;2.03;;;;;;;;;;5054768;28;20442;-71
2023/10/26 07:20:08;;;;;;;57.60;2.73;;;;;;;;;;5054444;28;21002;-71
2023/10/26 07:22:35;;;;;;;55.63;1.80;;;;;;;;;;5054365;28;20497;-71
2023/10/26 07:25:03;;;;;;;56.20;2.40;;;;;;;;;;5053803;28;20492;-70
2023/10/26 07:27:30;;;;;;;56.00;2.30;;;;;;;;;;5054211;28;20907;-71
2023/10/26 07:29:58;;;;;;;55.60;2.40;;;;;;;;;;5053816;28;20472;-71
2023/10/26 07:32:25;;;;;;;55.90;2.30;;;;;;;;;;5053954;28;20437;-71
2023/10/26 07:34:52;;;;;;;56.30;2.60;;;;;;;;;;5053732;28;20460;-71
2023/10/26 07:37:19;;;;;;;55.97;2.27;;;;;;;;;;5053914;28;20450;-71
2023/10/26 07:39:46;;;;;;;56.50;2.67;;;;;;;;;;5054015;28;20476;-71
2023/10/26 07:42:15;;;;;;;68.73;4.30;;;;;;;;;;5054201;28;20455;-71
2023/10/26 07:44:42;;;;;;;55.27;2.10;;;;;;;;;;5053335;28;20454;-71
2023/10/26 07:47:09;;;;;;;55.83;2.30;;;;;;;;;;5053626;28;20452;-71
2023/10/26 07:49:36;;;;;;;56.07;2.53;;;;;;;;;;5053561;28;20468;-71
2023/10/26 07:52:03;;;;;;;72.03;2.77;;;;;;;;;;5053424;28;20641;-71
2023/10/26 07:54:30;;;;;;;55.67;2.10;;;;;;;;;;5053358;28;20828;-72
2023/10/26 07:56:57;;;;;;;56.10;2.30;;;;;;;;;;5053324;28;20829;-72
2023/10/26 07:59:26;;;;;;;55.80;2.10;;;;;;;;;;5053268;28;20473;-72
2023/10/26 08:01:53;;;;;;;55.43;1.97;;;;;;;;;;5051978;28;21004;-72
2023/10/26 08:04:20;;;;;;;56.00;2.10;;;;;;;;;;5053448;28;20450;-72
2023/10/26 08:06:47;;;;;;;55.43;1.90;;;;;;;;;;5053247;28;20488;-72
2023/10/26 08:09:14;;;;;;;55.93;2.40;;;;;;;;;;5053158;28;20474;-72
2023/10/26 08:11:41;;;;;;;55.63;1.90;;;;;;;;;;5053135;28;20450;-72
2023/10/26 08:14:09;;;;;;;56.00;3.03;;;;;;;;;;5053188;28;20454;-72
2023/10/26 08:16:39;;;;;;;56.10;2.20;;;;;;;;;;5052973;28;20931;-72
2023/10/26 08:19:06;;;;;;;56.10;2.83;;;;;;;;;;5053031;28;20565;-72
2023/10/26 08:21:33;;;;;;;54.97;1.90;;;;;;;;;;5053153;28;20456;-72
2023/10/26 08:24:00;;;;;;;55.70;1.80;;;;;;;;;;5052790;28;20958;-72
2023/10/26 08:26:27;;;;;;;55.80;2.10;;;;;;;;;;5052951;28;20497;-72
2023/10/26 08:28:54;;;;;;;55.57;1.93;;;;;;;;;;5052852;28;20541;-72
2023/10/26 08:31:21;;;;;;;56.60;2.10;;;;;;;;;;5052863;28;20823;-72
2023/10/26 08:33:50;;;;;;;55.50;2.00;;;;;;;;;;5052827;28;20448;-72
2023/10/26 08:36:17;;;;;;;56.50;2.30;;;;;;;;;;5052694;28;20998;-72
2023/10/26 08:38:44;;;;;;;56.53;2.20;;;;;;;;;;5052604;28;20502;-72
2023/10/26 08:41:14;;;;;;;56.20;2.10;;;;;;;;;;5052506;28;20962;-71
2023/10/26 08:43:41;;;;;;;55.07;1.77;;;;;;;;;;5052959;28;20854;-72
2023/10/26 08:46:10;;;;;;;56.00;2.10;;;;;;;;;;5052434;28;20495;-72
2023/10/26 08:48:39;;;;;;;55.47;2.00;;;;;;;;;;5052582;28;20835;-72
2023/10/26 08:51:08;;;;;;;55.73;2.30;;;;;;;;;;5052304;28;20475;-72
2023/10/26 08:53:35;;;;;;;55.60;1.87;;;;;;;;;;5052438;28;20480;-71
2023/10/26 08:56:02;;;;;;;55.90;1.97;;;;;;;;;;5052240;28;20445;-72
2023/10/26 08:58:30;;;;;;;55.90;2.00;;;;;;;;;;5052330;28;20448;-72
2023/10/26 09:00:57;;;;;;;55.27;1.90;;;;;;;;;;5052235;28;20480;-72
2023/10/26 09:03:24;;;;;;;55.47;1.83;;;;;;;;;;5052123;28;20526;-72
2023/10/26 09:05:54;;;;;;;55.57;1.90;;;;;;;;;;5051823;28;20483;-72
2023/10/26 09:08:23;;;;;;;55.43;1.90;;;;;;;;;;5052280;28;20818;-72
2023/10/26 09:10:51;;;;;;;55.27;1.77;;;;;;;;;;5051919;28;20972;-73
2023/10/26 09:13:24;;;;;;;55.23;1.80;;;;;;;;;;5051913;28;20943;-72
2023/10/26 09:15:52;;;;;;;55.20;1.87;;;;;;;;;;5051788;28;20452;-72
2023/10/26 09:18:19;;;;;;;55.87;1.67;;;;;;;;;;5051781;28;20456;-72
2023/10/26 09:21:01;;;;;;;55.60;1.60;;;;;;;;;;5051830;28;20468;-73
2023/10/26 09:23:30;;;;;;;55.53;1.70;;;;;;;;;;5052085;28;20502;-73
2023/10/26 09:25:58;;;;;;;55.17;1.90;;;;;;;;;;5051692;28;20484;-73
2023/10/26 09:28:25;;;;;;;55.80;2.43;;;;;;;;;;5051752;28;20455;-73
2023/10/26 09:30:57;;;;;;;55.67;2.00;;;;;;;;;;5051747;28;20980;-73
2023/10/26 09:33:24;;;;;;;55.70;2.30;;;;;;;;;;5052094;28;20508;-73
2023/10/26 09:35:52;;;;;;;56.10;2.20;;;;;;;;;;5051426;28;20456;-73
2023/10/26 09:38:34;;;;;;;56.10;2.47;;;;;;;;;;5051703;28;20492;-73
2023/10/26 09:41:03;;;;;;;55.90;2.67;;;;;;;;;;5051602;28;20467;-73
2023/10/26 09:43:30;;;;;;;55.90;2.00;;;;;;;;;;5051331;28;20440;-72
2023/10/26 09:45:58;;;;;;;55.67;1.90;;;;;;;;;;5051504;28;20901;-72
2023/10/26 09:48:26;;;;;;;55.87;2.20;;;;;;;;;;5051589;28;20444;-73
2023/10/26 09:50:53;;;;;;;55.70;2.00;;;;;;;;;;5051418;28;20464;-72
2023/10/26 09:53:21;;;;;;;55.80;2.03;;;;;;;;;;5051468;28;20870;-72
2023/10/26 09:55:49;;;;;;;55.73;2.03;;;;;;;;;;5051077;28;20445;-73
2023/10/26 09:58:18;;;;;;;55.27;2.30;;;;;;;;;;5051355;28;20450;-73
2023/10/26 10:00:45;;;;;;;56.20;2.00;;;;;;;;;;5051127;28;20476;-73
2023/10/26 10:03:12;;;;;;;55.20;1.80;;;;;;;;;;5051192;28;20444;-72
2023/10/26 10:05:40;;;;;;;55.47;2.10;;;;;;;;;;5050867;28;20450;-72
2023/10/26 10:08:07;;;;;;;56.10;2.17;;;;;;;;;;5051133;28;20461;-72
2023/10/26 10:10:35;;;;;;;55.53;2.20;;;;;;;;;;5050633;28;20472;-72
2023/10/26 10:13:02;;;;;;;55.90;2.40;;;;;;;;;;5051315;28;20471;-72
2023/10/26 10:15:38;;;;;;;55.53;2.20;;;;;;;;;;5050717;28;20972;-72
2023/10/26 10:18:05;;;;;;;55.33;1.90;;;;;;;;;;5050937;28;20461;-72
2023/10/26 10:20:33;;;;;;;56.50;2.50;;;;;;;;;;5051037;28;20470;-72
2023/10/26 10:23:01;;;;;;;55.87;2.00;;;;;;;;;;5050832;28;20453;-72
2023/10/26 10:25:45;;;;;;;55.67;2.10;;;;;;;;;;5049947;28;20493;-72
2023/10/26 10:28:12;;;;;;;55.93;1.90;;;;;;;;;;5043873;28;20444;-72
2023/10/26 10:30:55;;;;;;;55.57;2.10;;;;;;;;;;5050825;28;20556;-72
2023/10/26 10:33:23;;;;;;;56.23;2.30;;;;;;;;;;5050577;28;20574;-73
2023/10/26 10:35:52;;;;;;;55.77;2.10;;;;;;;;;;5050815;28;20451;-73
2023/10/26 10:38:24;;;;;;;56.00;2.50;;;;;;;;;;5050880;28;20444;-72
2023/10/26 10:41:16;;;;;;;56.17;2.30;;;;;;;;;;5050723;28;20468;-72
2023/10/26 10:43:44;;;;;;;55.73;2.17;;;;;;;;;;5050487;28;20483;-72
2023/10/26 10:46:16;;;;;;;55.77;2.10;;;;;;;;;;5050491;28;20498;-73
2023/10/26 10:48:56;;;;;;;55.70;2.30;;;;;;;;;;5050667;28;20447;-72
2023/10/26 10:51:24;;;;;;;57.07;2.30;;;;;;;;;;5050555;28;20455;-72
2023/10/26 10:53:51;;;;;;;55.07;2.10;;;;;;;;;;5050538;28;20482;-72
2023/10/26 10:56:18;;;;;;;55.57;2.40;;;;;;;;;;5050627;28;20433;-72
2023/10/26 10:58:45;;;;;;;55.27;2.10;;;;;;;;;;5050801;28;20471;-72
2023/10/26 11:01:20;;;;;;;57.03;2.40;;;;;;;;;;5050337;28;20476;-72
2023/10/26 11:03:47;;;;;;;56.10;2.07;;;;;;;;;;5050342;28;20444;-72
2023/10/26 11:06:15;;;;;;;55.97;2.40;;;;;;;;;;5050559;28;20490;-72
2023/10/26 11:08:42;;;;;;;55.87;2.10;;;;;;;;;;5050527;28;20478;-72
2023/10/26 11:11:09;;;;;;;55.80;2.10;;;;;;;;;;5050073;28;20468;-72
2023/10/26 11:13:36;;;;;;;55.47;2.07;;;;;;;;;;5050200;28;20451;-72
2023/10/26 11:16:03;;;;;;;55.53;1.97;;;;;;;;;;5050504;28;20444;-72
2023/10/26 11:18:32;;;;;;;56.10;2.03;;;;;;;;;;5050209;28;20924;-72
2023/10/26 11:21:01;;;;;;;55.67;2.20;;;;;;;;;;5049995;28;20477;-72
2023/10/26 11:23:28;;;;;;;55.80;2.20;;;;;;;;;;5050091;28;20541;-72
2023/10/26 11:25:55;;;;;;;55.97;2.40;;;;;;;;;;5050206;28;20900;-72
2023/10/26 11:28:34;;;;;;;55.67;2.20;;;;;;;;;;5050325;28;20470;-72
2023/10/26 11:31:01;;;;;;;55.67;2.07;;;;;;;;;;5049228;28;20470;-70
2023/10/26 11:33:34;;;;;;;55.43;2.00;;;;;;;;;;5049384;28;20442;-70
2023/10/26 11:36:01;;;;;;;55.80;2.20;;;;;;;;;;5050377;28;20449;-70
2023/10/26 11:38:28;;;;;;;56.13;2.07;;;;;;;;;;5053868;28;20447;-70
2023/10/26 11:40:55;;;;;;;54.67;1.83;;;;;;;;;;5053253;28;20824;-70
2023/10/26 11:43:32;;;;;;;55.80;1.93;;;;;;;;;;5053383;28;20444;-70
2023/10/26 11:46:02;;;;;;;55.73;1.97;;;;;;;;;;5053652;28;20457;-70
2023/10/26 11:48:31;;;;;;;55.93;1.93;;;;;;;;;;5053622;28;20456;-71
2023/10/26 11:50:59;;;;;;;56.07;2.30;;;;;;;;;;5053670;28;20507;-71
2023/10/26 11:53:27;;;;;;;55.77;2.00;;;;;;;;;;5053640;28;20480;-71
2023/10/26 11:55:54;;;;;;;56.00;2.00;;;;;;;;;;5053514;28;20855;-71
2023/10/26 11:58:21;;;;;;;55.80;2.00;;;;;;;;;;5053605;28;21065;-71
2023/10/26 12:00:48;;;;;;;55.93;2.10;;;;;;;;;;5052988;28;20501;-71
2023/10/26 12:03:15;;;;;;;56.00;2.27;;;;;;;;;;5053487;28;20451;-71
2023/10/26 12:05:42;;;;;;;55.87;2.00;;;;;;;;;;5053154;28;20455;-71
2023/10/26 12:08:11;;;;;;;55.83;2.10;;;;;;;;;;5053310;28;20850;-70
2023/10/26 12:10:41;;;;;;;55.80;2.10;;;;;;;;;;5053139;28;20468;-71
2023/10/26 12:13:08;;;;;;;55.80;2.53;;;;;;;;;;5053162;28;20454;-70
2023/10/26 12:15:36;;;;;;;55.57;2.00;;;;;;;;;;5052639;28;20444;-70
2023/10/26 12:18:03;;;;;;;56.00;2.10;;;;;;;;;;5053146;28;20880;-70
2023/10/26 12:20:30;;;;;;;55.77;2.10;;;;;;;;;;5052971;28;20461;-70
2023/10/26 12:22:57;;;;;;;56.07;2.37;;;;;;;;;;5053035;28;20455;-70
2023/10/26 12:25:25;;;;;;;56.07;2.47;;;;;;;;;;5052753;28;20452;-70
2023/10/26 12:27:54;;;;;;;55.80;2.20;;;;;;;;;;5052766;28;20495;-70
2023/10/26 12:30:21;;;;;;;56.30;2.10;;;;;;;;;;5052836;28;20479;-70
2023/10/26 12:32:48;;;;;;;56.10;2.23;;;;;;;;;;5052866;28;20440;-70
2023/10/26 12:35:15;;;;;;;55.80;2.00;;;;;;;;;;5052610;28;20524;-70
2023/10/26 12:37:42;;;;;;;55.73;1.90;;;;;;;;;;5053204;28;20441;-70
2023/10/26 12:40:09;;;;;;;56.00;2.20;;;;;;;;;;5052790;28;20476;-70
2023/10/26 12:42:39;;;;;;;56.00;2.17;;;;;;;;;;5052475;28;20975;-70
2023/10/26 12:45:06;;;;;;;55.80;1.80;;;;;;;;;;5052516;28;20445;-70
2023/10/26 12:47:33;;;;;;;55.83;2.20;;;;;;;;;;5051995;28;20495;-70
2023/10/26 12:50:01;;;;;;;55.63;1.90;;;;;;;;;;5052006;28;20469;-70
2023/10/26 12:52:28;;;;;;;56.17;1.97;;;;;;;;;;5052534;28;20822;-71
2023/10/26 12:54:55;;;;;;;55.87;1.77;;;;;;;;;;5051538;28;20458;-70
2023/10/26 12:57:22;;;;;;;56.20;2.00;;;;;;;;;;5052088;28;20973;-70
2023/10/26 12:59:50;;;;;;;55.83;1.93;;;;;;;;;;5052453;28;20475;-70
2023/10/26 13:02:17;;;;;;;56.00;2.20;;;;;;;;;;5051765;28;20957;-69
2023/10/26 13:04:44;;;;;;;56.20;2.20;;;;;;;;;;5052061;28;20442;-69
2023/10/26 13:07:11;;;;;;;56.17;2.00;;;;;;;;;;5052018;28;20498;-70
2023/10/26 13:09:41;;;;;;;55.80;1.90;;;;;;;;;;5051838;28;20475;-70
2023/10/26 13:12:08;;;;;;;55.97;1.93;;;;;;;;;;5051906;28;20464;-71
2023/10/26 13:14:35;;;;;;;55.93;2.07;;;;;;;;;;5051872;28;20452;-70
2023/10/26 13:17:04;;;;;;;56.00;2.20;;;;;;;;;;5052020;28;20813;-70
2023/10/26 13:19:31;;;;;;;56.00;2.10;;;;;;;;;;5051705;28;20476;-70
2023/10/26 13:21:58;;;;;;;55.67;2.20;;;;;;;;;;5051827;28;20950;-71
2023/10/26 13:24:25;;;;;;;56.13;2.17;;;;;;;;;;5050743;28;20451;-71
2023/10/26 13:26:52;;;;;;;56.30;2.20;;;;;;;;;;5051946;28;20494;-71
2023/10/26 13:29:19;;;;;;;55.90;2.00;;;;;;;;;;5051704;28;20475;-70
2023/10/26 13:31:46;;;;;;;55.80;1.90;;;;;;;;;;5051539;28;20940;-71
2023/10/26 13:34:15;;;;;;;56.20;2.43;;;;;;;;;;5051505;28;20456;-70
2023/10/26 13:36:42;;;;;;;56.00;1.87;;;;;;;;;;5051401;28;20439;-71
2023/10/26 13:39:09;;;;;;;55.97;2.00;;;;;;;;;;5051471;28;20467;-70
2023/10/26 13:41:36;;;;;;;56.10;1.90;;;;;;;;;;5051514;28;20830;-71
2023/10/26 13:44:03;;;;;;;56.30;2.27;;;;;;;;;;5051405;28;20445;-70
2023/10/26 13:46:30;;;;;;;55.83;2.00;;;;;;;;;;5051368;28;20775;-70
2023/10/26 13:48:57;;;;;;;56.13;2.00;;;;;;;;;;5051456;28;20528;-71
2023/10/26 13:51:26;;;;;;;56.40;2.40;;;;;;;;;;5050880;28;20811;-71
2023/10/26 13:53:53;;;;;;;56.27;2.37;;;;;;;;;;5051298;28;20455;-71
2023/10/26 13:56:20;;;;;;;56.20;1.90;;;;;;;;;;5051037;28;20483;-71
2023/10/26 13:58:47;;;;;;;56.17;2.40;;;;;;;;;;5050977;28;20459;-71
2023/10/26 14:01:14;;;;;;;56.07;1.90;;;;;;;;;;5049854;28;20967;-70
2023/10/26 14:03:41;;;;;;;56.30;2.30;;;;;;;;;;5050678;28;20458;-70
2023/10/26 14:06:10;;;;;;;60.40;4.63;;;;;;;;;;5050814;28;20472;-71
2023/10/26 14:08:38;;;;;;;56.20;2.13;;;;;;;;;;5050928;28;20484;-70
2023/10/26 14:11:05;;;;;;;56.23;1.90;;;;;;;;;;5050760;28;20469;-70
2023/10/26 14:13:32;;;;;;;56.17;2.20;;;;;;;;;;5050912;28;20482;-71
2023/10/26 14:15:59;;;;;;;56.50;2.50;;;;;;;;;;5050999;28;20444;-70
2023/10/26 14:18:26;;;;;;;56.47;2.63;;;;;;;;;;5050918;28;20445;-70
2023/10/26 14:20:53;;;;;;;56.17;2.20;;;;;;;;;;5051050;28;20475;-70
2023/10/26 14:23:21;;;;;;;56.30;2.10;;;;;;;;;;5050941;28;20462;-70
2023/10/26 14:25:49;;;;;;;56.20;2.00;;;;;;;;;;5042513;28;20956;-71
2023/10/26 14:28:16;;;;;;;56.30;2.30;;;;;;;;;;5050888;28;20490;-71
2023/10/26 14:30:43;;;;;;;56.20;2.00;;;;;;;;;;5050846;28;20482;-71
2023/10/26 14:33:10;;;;;;;55.97;2.23;;;;;;;;;;5050714;28;20449;-71
2023/10/26 14:35:37;;;;;;;56.30;2.40;;;;;;;;;;5050684;28;20452;-71